createdAt,value
2024-02-19T00:00:19.610Z,21.70
2024-02-19T00:02:48.857Z,22.33
2024-02-19T00:05:21.460Z,22.67
2024-02-19T00:07:51.214Z,22.73
2024-02-19T00:10:23.271Z,21.83
2024-02-19T00:12:53.008Z,23.17
2024-02-19T00:15:22.172Z,19.48
2024-02-19T00:17:51.613Z,24.05
2024-02-19T00:20:24.895Z,24.60
2024-02-19T00:22:55.055Z,23.25
2024-02-19T00:25:25.925Z,22.45
2024-02-19T00:27:55.152Z,22.85
2024-02-19T00:30:24.513Z,21.08
2024-02-19T00:32:54.775Z,22.17
2024-02-19T00:35:28.565Z,21.45
2024-02-19T00:37:57.320Z,20.83
2024-02-19T00:40:26.697Z,20.77
2024-02-19T00:42:55.750Z,21.08
2024-02-19T00:45:28.103Z,20.62
2024-02-19T00:47:58.167Z,20.88
2024-02-19T00:50:27.563Z,22.75
2024-02-19T00:52:56.616Z,23.60
2024-02-19T00:55:28.035Z,20.77
2024-02-19T00:57:56.830Z,22.13
2024-02-19T01:00:27.645Z,22.25
2024-02-19T01:02:56.910Z,20.08
2024-02-19T01:05:29.741Z,20.25
2024-02-19T01:07:58.524Z,21.33
2024-02-19T01:10:27.637Z,20.50
2024-02-19T01:12:56.706Z,20.55
2024-02-19T01:15:28.393Z,19.83
2024-02-19T01:17:57.975Z,21.95
2024-02-19T01:20:26.792Z,20.75
2024-02-19T01:22:57.038Z,20.35
2024-02-19T01:25:32.732Z,20.15
2024-02-19T01:28:01.791Z,19.77
2024-02-19T01:30:32.698Z,18.42
2024-02-19T01:33:03.052Z,20.30
2024-02-19T01:35:34.144Z,21.87
2024-02-19T01:38:05.352Z,22.42
2024-02-19T01:40:34.561Z,21.37
2024-02-19T01:43:04.246Z,21.25
2024-02-19T01:45:33.859Z,21.40
2024-02-19T01:48:05.002Z,20.95
2024-02-19T01:50:38.312Z,20.75
2024-02-19T01:53:13.472Z,20.37
2024-02-19T01:55:43.806Z,20.40
2024-02-19T01:58:13.526Z,20.75
2024-02-19T02:00:44.068Z,20.92
2024-02-19T02:03:18.991Z,20.10
2024-02-19T02:05:49.234Z,21.02
2024-02-19T02:08:21.021Z,22.98
2024-02-19T02:10:56.163Z,20.77
2024-02-19T02:13:25.835Z,22.50
2024-02-19T02:15:54.949Z,22.42
2024-02-19T02:18:24.051Z,24.20
2024-02-19T02:20:53.166Z,21.60
2024-02-19T02:23:25.894Z,21.50
2024-02-19T02:25:55.233Z,20.75
2024-02-19T02:28:25.539Z,21.23
2024-02-19T02:30:55.056Z,22.13
2024-02-19T02:33:24.990Z,22.30
2024-02-19T02:35:54.245Z,20.52
2024-02-19T02:38:23.177Z,19.33
2024-02-19T02:40:54.749Z,22.52
2024-02-19T02:43:25.111Z,21.90
2024-02-19T02:45:54.525Z,22.45
2024-02-19T02:48:24.235Z,21.58
2024-02-19T02:50:53.094Z,21.92
2024-02-19T02:53:23.358Z,20.98
2024-02-19T02:55:52.243Z,22.05
2024-02-19T02:58:21.541Z,21.02
2024-02-19T03:00:53.714Z,20.23
2024-02-19T03:03:22.926Z,20.37
2024-02-19T03:05:52.225Z,19.60
2024-02-19T03:08:21.129Z,20.83
2024-02-19T03:10:52.005Z,20.90
2024-02-19T03:13:22.030Z,21.62
2024-02-19T03:15:51.152Z,20.20
2024-02-19T03:18:22.145Z,19.70
2024-02-19T03:20:53.145Z,20.75
2024-02-19T03:23:28.872Z,20.55
2024-02-19T03:25:58.030Z,20.23
2024-02-19T03:28:27.350Z,19.95
2024-02-19T03:30:56.376Z,18.95
2024-02-19T03:33:30.900Z,20.23
2024-02-19T03:36:00.825Z,19.95
2024-02-19T03:38:30.265Z,18.85
2024-02-19T03:40:59.263Z,18.52
2024-02-19T03:43:34.379Z,19.30
2024-02-19T03:46:05.507Z,19.27
2024-02-19T03:48:36.490Z,17.48
2024-02-19T03:51:05.930Z,18.62
2024-02-19T03:53:40.930Z,19.92
2024-02-19T03:56:10.322Z,18.58
2024-02-19T03:58:39.436Z,19.55
2024-02-19T04:01:09.108Z,21.05
2024-02-19T04:03:40.413Z,20.33
2024-02-19T04:06:09.463Z,19.80
2024-02-19T04:08:39.883Z,21.30
2024-02-19T04:11:08.781Z,21.77
2024-02-19T04:13:38.538Z,19.98
2024-02-19T04:16:10.322Z,19.92
2024-02-19T04:18:40.990Z,20.27
2024-02-19T04:21:10.397Z,19.85
2024-02-19T04:23:39.438Z,21.25
2024-02-19T04:26:08.229Z,20.27
2024-02-19T04:28:37.264Z,20.62
2024-02-19T04:31:10.237Z,22.23
2024-02-19T04:33:40.839Z,20.80
2024-02-19T04:36:09.743Z,20.27
2024-02-19T04:38:38.917Z,19.40
2024-02-19T04:41:08.885Z,20.62
2024-02-19T04:43:38.099Z,20.75
2024-02-19T04:46:07.388Z,20.77
2024-02-19T04:48:37.592Z,19.35
2024-02-19T04:51:08.342Z,20.55
2024-02-19T04:53:38.250Z,21.52
2024-02-19T04:56:08.404Z,19.90
2024-02-19T04:58:37.947Z,19.10
2024-02-19T05:01:07.321Z,19.23
2024-02-19T05:03:41.895Z,20.80
2024-02-19T05:06:12.827Z,21.73
2024-02-19T05:08:41.688Z,20.80
2024-02-19T05:11:10.783Z,19.92
2024-02-19T05:13:44.730Z,20.73
2024-02-19T05:16:17.563Z,23.05
2024-02-19T05:18:47.460Z,22.73
2024-02-19T05:21:19.388Z,23.40
2024-02-19T05:23:48.679Z,23.10
2024-02-19T05:26:27.209Z,24.33
2024-02-19T05:28:56.388Z,24.02
2024-02-19T05:31:35.353Z,24.85
2024-02-19T05:34:06.185Z,24.30
2024-02-19T05:36:37.092Z,24.15
2024-02-19T05:39:11.743Z,24.85
2024-02-19T05:41:41.264Z,25.65
2024-02-19T05:44:12.511Z,33.20
2024-02-19T05:46:41.209Z,30.85
2024-02-19T05:49:11.570Z,28.45
2024-02-19T05:51:42.706Z,27.35
2024-02-19T05:54:12.281Z,25.58
2024-02-19T05:56:44.579Z,26.80
2024-02-19T05:59:15.251Z,27.25
2024-02-19T06:01:44.494Z,29.58
2024-02-19T06:04:14.182Z,27.75
2024-02-19T06:06:45.251Z,25.05
2024-02-19T06:09:14.440Z,26.27
2024-02-19T06:11:45.657Z,23.48
2024-02-19T06:14:18.122Z,24.55
2024-02-19T06:16:47.250Z,25.88
2024-02-19T06:19:18.444Z,27.60
2024-02-19T06:21:48.828Z,25.52
2024-02-19T06:24:17.963Z,23.73
2024-02-19T06:26:46.881Z,26.45
2024-02-19T06:29:15.852Z,26.05
2024-02-19T06:31:47.301Z,26.02
2024-02-19T06:34:16.688Z,25.92
2024-02-19T06:36:46.454Z,27.55
2024-02-19T06:39:16.757Z,25.25
2024-02-19T06:41:46.310Z,26.52
2024-02-19T06:44:15.394Z,26.65
2024-02-19T06:46:44.489Z,30.08
2024-02-19T06:49:17.595Z,28.15
2024-02-19T06:51:47.032Z,29.77
2024-02-19T06:54:17.694Z,31.80
2024-02-19T06:56:47.167Z,30.67
2024-02-19T06:59:17.510Z,27.10
2024-02-19T07:01:47.010Z,29.48
2024-02-19T07:04:16.201Z,27.98
2024-02-19T07:06:46.150Z,28.30
2024-02-19T07:09:16.078Z,29.12
2024-02-19T07:11:46.316Z,25.73
2024-02-19T07:14:16.121Z,26.30
2024-02-19T07:16:45.343Z,26.00
2024-02-19T07:19:15.270Z,24.75
2024-02-19T07:21:45.846Z,24.15
2024-02-19T07:24:14.990Z,23.73
2024-02-19T07:26:44.138Z,25.10
2024-02-19T07:31:44.639Z,26.07
2024-02-19T07:34:13.723Z,28.38
2024-02-19T07:36:46.079Z,24.10
2024-02-19T07:39:15.876Z,24.17
2024-02-19T07:41:44.762Z,24.00
2024-02-19T07:44:15.088Z,25.15
2024-02-19T07:46:44.823Z,25.85
2024-02-19T07:49:14.149Z,27.30
2024-02-19T07:51:43.318Z,26.02
2024-02-19T07:54:13.063Z,28.00
2024-02-19T07:56:41.765Z,26.70
2024-02-19T07:59:10.603Z,26.83
2024-02-19T08:01:41.173Z,24.33
2024-02-19T08:04:10.406Z,27.08
2024-02-19T08:06:39.880Z,23.92
2024-02-19T08:09:09.097Z,26.65
2024-02-19T08:11:38.724Z,25.67
2024-02-19T08:14:07.968Z,25.12
2024-02-19T08:16:37.686Z,25.17
2024-02-19T08:19:08.121Z,27.42
2024-02-19T08:21:37.052Z,24.37
2024-02-19T08:24:06.799Z,25.23
2024-02-19T08:26:36.252Z,26.73
2024-02-19T08:29:05.468Z,28.80
2024-02-19T08:31:34.976Z,28.70
2024-02-19T08:34:04.532Z,28.27
2024-02-19T08:36:35.744Z,29.10
2024-02-19T08:39:07.982Z,27.77
2024-02-19T08:41:37.099Z,32.20
2024-02-19T08:44:06.669Z,29.83
2024-02-19T08:46:35.693Z,26.35
2024-02-19T08:49:04.948Z,25.15
2024-02-19T08:51:36.077Z,25.98
2024-02-19T08:54:06.013Z,25.95
2024-02-19T08:56:35.561Z,24.12
2024-02-19T08:59:05.476Z,27.95
2024-02-19T09:01:34.631Z,25.65
2024-02-19T09:04:06.683Z,27.05
2024-02-19T09:06:37.993Z,27.80
2024-02-19T09:09:08.444Z,27.17
2024-02-19T09:11:40.415Z,27.02
2024-02-19T09:14:09.920Z,25.85
2024-02-19T09:16:38.694Z,26.02
2024-02-19T09:19:10.647Z,25.62
2024-02-19T09:21:44.808Z,26.40
2024-02-19T09:24:14.221Z,27.67
2024-02-19T09:26:44.467Z,28.33
2024-02-19T09:29:14.137Z,30.58
2024-02-19T09:31:51.517Z,30.62
2024-02-19T09:34:23.793Z,49.83
2024-02-19T09:36:56.932Z,32.25
2024-02-19T09:39:26.278Z,34.33
2024-02-19T09:41:55.577Z,33.28
2024-02-19T09:44:24.681Z,34.25
2024-02-19T09:46:57.136Z,32.47
2024-02-19T09:49:29.715Z,29.10
2024-02-19T09:52:04.358Z,31.05
2024-02-19T09:54:33.813Z,28.55
2024-02-19T09:57:03.350Z,29.30
2024-02-19T09:59:32.907Z,29.95
2024-02-19T10:02:02.438Z,27.52
2024-02-19T10:04:33.024Z,29.30
2024-02-19T10:07:04.017Z,27.23
2024-02-19T10:09:33.968Z,29.45
2024-02-19T10:12:03.757Z,29.83
2024-02-19T10:14:32.730Z,29.27
2024-02-19T10:17:02.460Z,28.23
2024-02-19T10:19:31.696Z,23.98
2024-02-19T10:22:00.886Z,30.67
2024-02-19T10:24:32.044Z,30.40
2024-02-19T10:27:01.168Z,31.42
2024-02-19T10:29:30.897Z,24.52
2024-02-19T10:31:59.945Z,24.77
2024-02-19T10:34:29.397Z,24.20
2024-02-19T10:37:04.819Z,22.98
2024-02-19T10:39:35.338Z,25.92
2024-02-19T10:42:05.662Z,24.42
2024-02-19T10:44:35.890Z,26.58
2024-02-19T10:47:07.653Z,24.95
2024-02-19T10:49:37.369Z,25.42
2024-02-19T10:52:07.438Z,24.87
2024-02-19T10:55:02.474Z,25.67
2024-02-19T10:57:46.539Z,24.08
2024-02-19T11:00:16.435Z,24.23
2024-02-19T11:02:45.950Z,25.50
2024-02-19T11:05:15.944Z,24.08
2024-02-19T11:07:46.247Z,24.92
2024-02-19T11:10:22.484Z,24.37
2024-02-19T11:12:51.599Z,26.10
2024-02-19T11:15:22.329Z,24.27
2024-02-19T11:17:56.847Z,24.90
2024-02-19T11:20:26.947Z,25.50
2024-02-19T11:23:01.544Z,24.27
2024-02-19T11:25:32.059Z,27.60
2024-02-19T11:28:01.619Z,26.25
2024-02-19T11:30:32.581Z,24.30
2024-02-19T11:33:02.863Z,25.90
2024-02-19T11:35:36.397Z,24.08
2024-02-19T11:38:06.360Z,23.85
2024-02-19T11:40:37.212Z,24.00
2024-02-19T11:43:09.327Z,23.17
2024-02-19T11:45:39.933Z,23.30
2024-02-19T11:48:10.342Z,21.12
2024-02-19T11:50:41.251Z,20.70
2024-02-19T11:53:11.628Z,18.70
2024-02-19T11:58:29.153Z,19.20
2024-02-19T12:00:58.813Z,19.05
2024-02-19T12:03:28.991Z,18.87
2024-02-19T12:06:05.503Z,20.05
2024-02-19T12:08:35.158Z,21.42
2024-02-19T12:11:08.767Z,22.65
2024-02-19T12:13:40.170Z,21.27
2024-02-19T12:16:10.374Z,23.23
2024-02-19T12:18:41.672Z,22.13
2024-02-19T12:21:11.499Z,23.55
2024-02-19T12:23:42.429Z,23.02
2024-02-19T12:26:12.971Z,22.98
2024-02-19T12:28:42.433Z,24.98
2024-02-19T12:31:12.111Z,23.10
2024-02-19T12:33:41.495Z,25.67
2024-02-19T12:36:13.732Z,24.52
2024-02-19T12:38:43.930Z,25.33
2024-02-19T12:41:15.739Z,26.08
2024-02-19T12:43:45.811Z,27.05
2024-02-19T12:46:16.022Z,27.45
2024-02-19T12:48:45.448Z,29.27
2024-02-19T12:51:16.754Z,27.80
2024-02-19T12:53:51.212Z,26.90
2024-02-19T12:56:21.743Z,27.20
2024-02-19T12:58:50.771Z,26.15
2024-02-19T13:01:27.345Z,27.15
2024-02-19T13:04:01.556Z,27.17
2024-02-19T13:06:31.664Z,26.30
2024-02-19T13:09:01.804Z,27.58
2024-02-19T13:11:32.797Z,27.60
2024-02-19T13:14:04.007Z,26.80
2024-02-19T13:16:35.935Z,28.40
2024-02-19T13:19:09.881Z,24.27
2024-02-19T13:21:39.479Z,22.13
2024-02-19T13:24:08.778Z,20.92
2024-02-19T13:26:38.848Z,21.75
2024-02-19T13:29:07.929Z,21.05
2024-02-19T13:31:41.182Z,22.05
2024-02-19T13:34:11.277Z,22.37
2024-02-19T13:36:40.879Z,22.90
2024-02-19T13:39:10.308Z,23.30
2024-02-19T13:41:40.712Z,23.45
2024-02-19T13:44:09.558Z,23.02
2024-02-19T13:46:39.754Z,23.25
2024-02-19T13:49:09.110Z,23.40
2024-02-19T13:51:38.446Z,24.17
2024-02-19T13:54:07.912Z,22.85
2024-02-19T13:56:42.205Z,23.58
2024-02-19T13:59:11.613Z,22.00
2024-02-19T14:01:42.791Z,22.95
2024-02-19T14:04:13.457Z,23.27
2024-02-19T14:06:42.760Z,25.65
2024-02-19T14:09:12.795Z,25.27
2024-02-19T14:11:43.786Z,23.05
2024-02-19T14:14:17.484Z,22.45
2024-02-19T14:16:46.846Z,22.58
2024-02-19T14:19:16.249Z,22.77
2024-02-19T14:21:45.732Z,24.85
2024-02-19T14:24:15.400Z,23.00
2024-02-19T14:26:46.127Z,23.17
2024-02-19T14:29:16.261Z,21.33
2024-02-19T14:31:45.377Z,23.65
2024-02-19T14:34:14.588Z,22.87
2024-02-19T14:36:44.348Z,23.45
2024-02-19T14:41:58.516Z,23.77
2024-02-19T14:44:27.542Z,26.40
2024-02-19T14:47:02.595Z,23.77
2024-02-19T14:49:36.472Z,22.80
2024-02-19T14:52:06.761Z,23.58
2024-02-19T14:54:45.632Z,24.45
2024-02-19T14:57:16.391Z,24.80
2024-02-19T14:59:45.571Z,24.60
2024-02-19T15:02:16.559Z,23.00
2024-02-19T15:04:45.911Z,22.83
2024-02-19T15:07:15.259Z,21.42
2024-02-19T15:09:44.093Z,23.30
2024-02-19T15:12:19.649Z,22.90
2024-02-19T15:14:48.978Z,24.12
2024-02-19T15:17:18.600Z,24.33
2024-02-19T15:19:47.524Z,22.65
2024-02-19T15:22:17.107Z,27.02
2024-02-19T15:24:46.416Z,24.87
2024-02-19T15:27:17.224Z,26.90
2024-02-19T15:29:47.102Z,24.20
2024-02-19T15:32:19.030Z,27.30
2024-02-19T15:34:48.535Z,25.88
2024-02-19T15:37:19.761Z,26.25
2024-02-19T15:39:48.912Z,26.95
2024-02-19T15:42:22.027Z,32.43
2024-02-19T15:44:54.286Z,28.95
2024-02-19T15:47:23.926Z,25.57
2024-02-19T15:49:55.506Z,36.65
2024-02-19T15:52:29.402Z,46.47
2024-02-19T15:54:58.737Z,36.80
2024-02-19T15:57:29.296Z,28.83
2024-02-19T16:00:01.791Z,29.85
2024-02-19T16:02:35.000Z,31.30
2024-02-19T16:05:04.899Z,36.17
2024-02-19T16:07:34.616Z,32.15
2024-02-19T16:10:03.694Z,32.63
2024-02-19T16:12:34.956Z,32.95
2024-02-19T16:15:08.010Z,29.87
2024-02-19T16:17:37.697Z,32.97
2024-02-19T16:20:09.203Z,31.70
2024-02-19T16:22:40.145Z,38.53
2024-02-19T16:25:12.324Z,33.20
2024-02-19T16:30:14.552Z,28.55
2024-02-19T16:32:44.238Z,28.60
2024-02-19T16:35:13.363Z,27.92
2024-02-19T16:37:42.785Z,29.37
2024-02-19T16:40:12.473Z,32.80
2024-02-19T16:42:43.564Z,36.47
2024-02-19T16:45:12.832Z,31.87
2024-02-19T16:47:41.797Z,29.98
2024-02-19T16:50:11.266Z,27.77
2024-02-19T16:52:40.515Z,24.55
2024-02-19T16:55:10.676Z,26.30
2024-02-19T16:57:39.787Z,26.23
2024-02-19T17:00:11.330Z,24.75
2024-02-19T17:02:40.436Z,23.90
2024-02-19T17:05:10.840Z,23.90
2024-02-19T17:07:40.156Z,22.23
2024-02-19T17:10:13.082Z,21.90
2024-02-19T17:12:45.214Z,22.10
2024-02-19T17:15:17.169Z,23.67
2024-02-19T17:17:46.771Z,23.65
2024-02-19T17:20:16.346Z,23.60
2024-02-19T17:22:45.202Z,23.48
2024-02-19T17:25:14.100Z,25.17
2024-02-19T17:27:43.875Z,23.42
2024-02-19T17:30:17.488Z,25.33
2024-02-19T17:32:47.105Z,25.20
2024-02-19T17:35:16.681Z,26.83
2024-02-19T17:37:46.159Z,28.02
2024-02-19T17:40:16.206Z,25.00
2024-02-19T17:42:48.362Z,24.98
2024-02-19T17:45:19.336Z,24.23
2024-02-19T17:47:51.692Z,23.30
2024-02-19T17:50:21.407Z,23.40
2024-02-19T17:52:50.430Z,22.77
2024-02-19T17:55:19.314Z,24.77
2024-02-19T17:57:49.553Z,31.05
2024-02-19T18:00:21.245Z,33.58
2024-02-19T18:02:51.121Z,31.37
2024-02-19T18:05:20.278Z,38.53
2024-02-19T18:07:49.178Z,48.28
2024-02-19T18:10:18.886Z,42.40
2024-02-19T18:12:48.332Z,37.58
2024-02-19T18:15:22.725Z,34.25
2024-02-19T18:17:54.246Z,31.12
2024-02-19T18:20:23.725Z,31.20
2024-02-19T18:22:53.095Z,30.02
2024-02-19T18:25:22.469Z,30.33
2024-02-19T18:27:51.571Z,27.75
2024-02-19T18:30:20.976Z,28.58
2024-02-19T18:32:50.408Z,30.35
2024-02-19T18:35:21.133Z,27.40
2024-02-19T18:37:50.596Z,28.12
2024-02-19T18:40:19.563Z,28.62
2024-02-19T18:42:49.525Z,29.45
2024-02-19T18:45:18.937Z,30.15
2024-02-19T18:47:49.504Z,30.50
2024-02-19T18:50:20.131Z,30.75
2024-02-19T18:52:49.298Z,31.50
2024-02-19T18:55:18.642Z,29.95
2024-02-19T18:57:47.709Z,37.10
2024-02-19T19:00:20.657Z,36.60
2024-02-19T19:02:57.998Z,35.95
2024-02-19T19:05:29.407Z,37.47
2024-02-19T19:08:01.653Z,36.30
2024-02-19T19:10:30.724Z,38.75
2024-02-19T19:13:00.123Z,39.25
2024-02-19T19:15:29.207Z,38.10
2024-02-19T19:17:58.491Z,35.15
2024-02-19T19:20:31.642Z,38.70
2024-02-19T19:23:00.846Z,35.60
2024-02-19T19:25:34.095Z,32.28
2024-02-19T19:28:03.237Z,31.23
2024-02-19T19:30:32.670Z,30.75
2024-02-19T19:33:03.872Z,29.33
2024-02-19T19:35:34.931Z,31.50
2024-02-19T19:38:04.361Z,33.08
2024-02-19T19:40:33.667Z,29.80
2024-02-19T19:43:03.039Z,29.85
2024-02-19T19:45:33.641Z,34.13
2024-02-19T19:48:02.929Z,36.13
2024-02-19T19:50:32.179Z,36.25
2024-02-19T19:53:02.895Z,35.03
2024-02-19T19:55:35.375Z,36.30
2024-02-19T19:58:11.376Z,36.17
2024-02-19T20:03:16.482Z,33.35
2024-02-19T20:05:46.352Z,32.28
2024-02-19T20:08:28.254Z,32.75
2024-02-19T20:10:57.435Z,33.35
2024-02-19T20:13:26.410Z,30.35
2024-02-19T20:15:58.286Z,33.10
2024-02-19T20:18:29.323Z,32.50
2024-02-19T20:20:59.146Z,33.85
2024-02-19T20:23:34.431Z,32.83
2024-02-19T20:26:03.548Z,33.60
2024-02-19T20:28:35.214Z,33.92
2024-02-19T20:31:05.911Z,30.70
2024-02-19T20:33:35.555Z,28.35
2024-02-19T20:36:05.553Z,24.67
2024-02-19T20:38:37.123Z,23.20
2024-02-19T20:41:06.537Z,20.75
2024-02-19T20:43:36.474Z,20.95
2024-02-19T20:46:06.038Z,22.65
2024-02-19T20:48:35.193Z,20.30
2024-02-19T20:51:04.464Z,19.42
2024-02-19T20:53:33.578Z,21.15
2024-02-19T20:56:04.166Z,25.58
2024-02-19T20:58:33.381Z,22.85
2024-02-19T21:01:03.101Z,18.60
2024-02-19T21:03:40.083Z,16.62
2024-02-19T21:06:15.240Z,14.90
2024-02-19T21:08:44.280Z,14.82
2024-02-19T21:11:17.077Z,14.85
2024-02-19T21:13:46.343Z,14.57
2024-02-19T21:16:17.886Z,14.48
2024-02-19T21:18:48.333Z,14.67
2024-02-19T21:21:29.411Z,14.57
2024-02-19T21:24:05.067Z,14.38
2024-02-19T21:26:35.584Z,15.93
2024-02-19T21:29:05.531Z,12.82
2024-02-19T21:31:34.570Z,15.38
2024-02-19T21:34:09.637Z,14.00
2024-02-19T21:36:43.166Z,14.77
2024-02-19T21:39:12.490Z,13.25
2024-02-19T21:41:43.199Z,12.35
2024-02-19T21:44:12.931Z,13.90
2024-02-19T21:46:44.033Z,13.62
2024-02-19T21:49:18.736Z,14.87
2024-02-19T21:51:48.140Z,11.48
2024-02-19T21:54:17.901Z,12.13
2024-02-19T21:56:48.754Z,9.85
2024-02-19T21:59:18.665Z,10.77
2024-02-19T22:01:47.970Z,9.68
2024-02-19T22:04:17.806Z,9.13
2024-02-19T22:06:47.005Z,8.27
2024-02-19T22:09:16.220Z,8.77
2024-02-19T22:11:46.000Z,7.80
2024-02-19T22:14:16.560Z,6.87
2024-02-19T22:16:45.673Z,7.00
2024-02-19T22:19:15.323Z,6.80
2024-02-19T22:21:44.822Z,6.82
2024-02-19T22:24:14.330Z,8.85
2024-02-19T22:26:47.073Z,6.22
2024-02-19T22:29:17.853Z,6.25
2024-02-19T22:31:46.831Z,6.10
2024-02-19T22:34:15.680Z,7.10
2024-02-19T22:36:44.840Z,7.07
2024-02-19T22:39:14.036Z,8.00
2024-02-19T22:41:43.715Z,8.32
2024-02-19T22:44:12.783Z,8.10
2024-02-19T22:46:43.311Z,8.48
2024-02-19T22:49:12.447Z,8.20
2024-02-19T22:51:44.928Z,8.82
2024-02-19T22:54:14.821Z,8.25
2024-02-19T22:56:43.999Z,7.82
2024-02-19T22:59:18.936Z,8.30
2024-02-19T23:01:55.588Z,8.50
2024-02-19T23:04:24.893Z,7.62
2024-02-19T23:06:54.526Z,8.38
2024-02-19T23:09:25.151Z,9.40
2024-02-19T23:11:54.941Z,7.80
2024-02-19T23:14:24.583Z,8.93
2024-02-19T23:16:55.637Z,8.45
2024-02-19T23:19:25.384Z,8.02
2024-02-19T23:21:54.453Z,7.30
2024-02-19T23:24:23.809Z,8.02
2024-02-19T23:26:53.524Z,7.43
2024-02-19T23:29:22.713Z,7.57
2024-02-19T23:31:51.857Z,7.60
2024-02-19T23:34:22.848Z,6.37
2024-02-19T23:36:52.425Z,6.47
2024-02-19T23:39:21.462Z,7.20
2024-02-19T23:41:50.204Z,7.05
2024-02-19T23:44:19.049Z,6.60
2024-02-19T23:46:48.485Z,7.25
2024-02-19T23:49:17.800Z,6.82
2024-02-19T23:51:51.006Z,6.87
2024-02-19T23:54:20.363Z,7.00
2024-02-19T23:56:49.785Z,7.70
2024-02-19T23:59:19.201Z,7.18
